CheckWX is a tool to help pilots better visualize weather data.  It is not intended as a substitute for an official pre-flight weather briefing.

01:12:46 UTC

SBIL TAF
Bahia - Jorge Amado Airport
Ilhéus, Brazil
TAF SBIL 172200Z 1800/1812 10008KT 9999 FEW030 TN26/1806Z TX28/1812Z BECMG 1802/1804 27005KT BECMG 1809/1811 05005KT SCT020 FEW030TCU RMK PFM

Nov-18@
00:00 UTC

Nov-18 @ 00:00 UTC

Nov-18@
02:00 UTC

Nov-18 @ 02:00 UTC

TAF SBIL 172200Z 1800/1812 10008KT 9999 FEW030 TN26/1806Z TX28/1812Z
Wind
  • 100° at 8 KTS
Cloud Levels
  • Few at 3,000' AGL

Nov-18@
02:00 UTC

Nov-18 @ 02:00 UTC

Nov-18@
09:00 UTC

Nov-18 @ 09:00 UTC

BECMG 1802/1804 27005KT

Becoming

Becoming Conditions expected by Mon, Nov 18, 2019 @ 04:00 UTC

Wind
  • 270° at 5 KTS
Cloud Levels
  • Few at 3,000' AGL

Nov-18@
09:00 UTC

Nov-18 @ 09:00 UTC

Nov-18@
12:00 UTC

Nov-18 @ 12:00 UTC

BECMG 1809/1811 05005KT SCT020 FEW030TCU RMK PFM

Becoming

Becoming Conditions expected by Mon, Nov 18, 2019 @ 11:00 UTC

Wind
  • 050° at 5 KTS
Cloud Levels
  • Scattered at 2,000' AGL
  • Few at 3,000' AGL